createdAt,value
2019-05-03T00:03:49.406Z,9.26
2019-05-03T00:06:16.135Z,9.24
2019-05-03T00:08:42.852Z,9.21
2019-05-03T00:11:09.612Z,9.22
2019-05-03T00:13:36.366Z,9.18
2019-05-03T00:18:46.902Z,9.12
2019-05-03T00:21:13.600Z,9.06
2019-05-03T00:23:41.844Z,9.06
2019-05-03T00:26:15.266Z,9.07
2019-05-03T00:28:42.633Z,9.09
2019-05-03T00:31:17.020Z,9.10
2019-05-03T00:39:41.742Z,9.06
2019-05-03T00:42:14.610Z,9.07
2019-05-03T00:44:42.216Z,9.02
2019-05-03T00:47:16.329Z,8.98
2019-05-03T00:49:42.942Z,8.99
2019-05-03T00:52:11.645Z,8.99
2019-05-03T00:54:47.995Z,8.98
2019-05-03T00:57:14.605Z,8.98
2019-05-03T00:59:42.034Z,8.97
2019-05-03T01:02:16.621Z,8.93
2019-05-03T01:04:43.233Z,8.88
2019-05-03T01:07:11.575Z,8.89
2019-05-03T01:09:48.049Z,8.86
2019-05-03T01:12:14.685Z,8.86
2019-05-03T01:17:36.033Z,8.86
2019-05-03T01:20:03.017Z,8.86
2019-05-03T01:22:29.696Z,8.88
2019-05-03T01:24:56.315Z,8.89
2019-05-03T01:27:22.954Z,8.92
2019-05-03T01:29:49.576Z,8.91
2019-05-03T01:32:16.282Z,8.92
2019-05-03T01:34:42.923Z,8.90
2019-05-03T01:37:09.510Z,8.91
2019-05-03T01:39:36.138Z,8.90
2019-05-03T01:42:02.810Z,8.90
2019-05-03T01:44:29.460Z,8.87
2019-05-03T01:50:09.975Z,8.90
2019-05-03T01:55:46.405Z,8.83
2019-05-03T01:58:21.776Z,8.85
2019-05-03T02:04:03.044Z,8.89
2019-05-03T02:06:31.763Z,8.94
2019-05-03T02:09:05.240Z,8.94
2019-05-03T02:11:32.635Z,8.91
2019-05-03T02:14:06.661Z,8.93
2019-05-03T02:16:33.272Z,8.96
2019-05-03T02:18:59.885Z,8.95
2019-05-03T02:21:26.614Z,8.93
2019-05-03T02:23:53.359Z,8.91
2019-05-03T02:26:19.988Z,8.94
2019-05-03T02:28:46.588Z,8.93
2019-05-03T02:31:13.878Z,8.94
2019-05-03T02:33:48.145Z,8.96
2019-05-03T02:36:14.754Z,8.96
2019-05-03T02:38:42.949Z,8.95
2019-05-03T02:41:16.217Z,8.95
2019-05-03T02:43:48.099Z,8.96
2019-05-03T02:46:41.812Z,8.96
2019-05-03T02:49:37.081Z,8.96
2019-05-03T02:52:06.378Z,8.96
2019-05-03T02:54:32.316Z,8.97
2019-05-03T02:56:58.962Z,8.99
2019-05-03T02:59:26.387Z,8.98
2019-05-03T03:01:55.747Z,8.98
2019-05-03T03:04:21.856Z,8.95
2019-05-03T03:06:48.508Z,8.98
2019-05-03T03:09:16.461Z,8.99
2019-05-03T03:11:45.627Z,8.97
2019-05-03T03:14:12.115Z,8.98
2019-05-03T03:16:38.888Z,8.99
2019-05-03T03:19:06.686Z,9.00
2019-05-03T03:21:36.442Z,9.00
2019-05-03T03:24:06.937Z,9.01
2019-05-03T03:26:39.312Z,9.08
2019-05-03T03:29:05.326Z,9.09
2019-05-03T03:31:37.999Z,9.09
2019-05-03T03:34:08.074Z,9.08
2019-05-03T03:36:57.954Z,9.05
2019-05-03T03:39:06.107Z,9.07
2019-05-03T03:41:35.230Z,9.07
2019-05-03T03:44:01.613Z,9.08
2019-05-03T03:46:31.859Z,9.09
2019-05-03T03:48:56.831Z,9.07
2019-05-03T03:51:26.146Z,9.05
2019-05-03T03:53:52.291Z,9.06
2019-05-03T03:56:18.919Z,9.03
2019-05-03T03:58:46.433Z,9.03
2019-05-03T04:01:15.654Z,9.01
2019-05-03T04:03:41.903Z,9.04
2019-05-03T04:06:08.622Z,9.05
2019-05-03T04:08:35.994Z,9.03
2019-05-03T04:11:03.053Z,9.03
2019-05-03T04:13:29.662Z,9.03
2019-05-03T04:16:21.644Z,9.09
2019-05-03T04:18:55.998Z,9.10
2019-05-03T04:21:25.268Z,9.09
2019-05-03T04:23:51.102Z,9.11
2019-05-03T04:26:17.732Z,9.13
2019-05-03T04:28:45.354Z,9.12
2019-05-03T04:31:12.209Z,9.11
2019-05-03T04:33:38.910Z,9.16
2019-05-03T04:36:05.655Z,9.18
2019-05-03T04:38:32.370Z,9.21
2019-05-03T04:40:58.969Z,9.21
2019-05-03T04:43:26.378Z,9.34
2019-05-03T04:46:21.882Z,9.46
2019-05-03T04:48:48.645Z,9.58
2019-05-03T04:51:16.649Z,9.80
2019-05-03T04:53:47.585Z,9.84
2019-05-03T04:56:16.901Z,9.90
2019-05-03T04:58:45.671Z,10.07
2019-05-03T05:01:11.250Z,10.04
2019-05-03T05:03:37.839Z,10.07
2019-05-03T05:06:06.233Z,10.08
2019-05-03T05:08:35.586Z,10.03
2019-05-03T05:11:01.527Z,9.96
2019-05-03T05:13:28.256Z,9.95
2019-05-03T05:15:55.183Z,9.96
2019-05-03T05:18:28.237Z,10.01
2019-05-03T05:21:00.286Z,9.98
2019-05-03T05:23:26.902Z,9.95
2019-05-03T05:26:05.501Z,10.29
2019-05-03T05:28:39.051Z,10.57
2019-05-03T05:31:05.809Z,10.92
2019-05-03T05:33:32.449Z,11.03
2019-05-03T05:35:59.102Z,10.94
2019-05-03T05:38:25.823Z,10.80
2019-05-03T05:40:52.472Z,10.68
2019-05-03T05:43:19.092Z,10.56
2019-05-03T05:45:45.711Z,10.44
2019-05-03T05:48:15.380Z,10.37
2019-05-03T05:50:44.894Z,10.28
2019-05-03T05:53:11.789Z,10.20
2019-05-03T05:56:00.767Z,10.12
2019-05-03T05:58:31.319Z,10.10
2019-05-03T06:01:05.539Z,10.12
2019-05-03T06:03:34.334Z,10.23
2019-05-03T06:06:05.278Z,10.38
2019-05-03T06:08:44.652Z,10.40
2019-05-03T06:11:31.458Z,10.37
2019-05-03T06:14:26.960Z,10.25
2019-05-03T06:17:01.009Z,10.29
2019-05-03T06:19:46.119Z,10.26
2019-05-03T06:22:22.238Z,10.47
2019-05-03T06:24:54.347Z,10.63
2019-05-03T06:27:46.540Z,10.69
2019-05-03T06:30:32.688Z,10.73
2019-05-03T06:32:59.420Z,10.63
2019-05-03T06:35:26.064Z,10.63
2019-05-03T06:37:54.526Z,10.59
2019-05-03T06:40:25.256Z,10.57
2019-05-03T06:42:57.244Z,10.45
2019-05-03T06:45:21.400Z,10.47
2019-05-03T06:47:50.009Z,10.45
2019-05-03T06:50:19.592Z,10.51
2019-05-03T06:52:45.148Z,10.53
2019-05-03T06:55:11.775Z,10.51
2019-05-03T06:57:45.564Z,10.39
2019-05-03T07:00:28.746Z,10.29
2019-05-03T07:03:04.904Z,10.33
2019-05-03T07:05:49.776Z,10.39
2019-05-03T07:08:37.660Z,10.56
2019-05-03T07:11:05.200Z,10.62
2019-05-03T07:13:32.057Z,10.75
2019-05-03T07:15:58.802Z,10.75
2019-05-03T07:18:25.452Z,10.81
2019-05-03T07:20:57.072Z,10.85
2019-05-03T07:23:24.494Z,10.77
2019-05-03T07:25:51.264Z,10.78
2019-05-03T07:28:17.898Z,10.91
2019-05-03T07:30:45.431Z,10.90
2019-05-03T07:33:18.959Z,11.01
2019-05-03T07:35:45.608Z,11.05
2019-05-03T07:38:12.297Z,10.94
2019-05-03T07:40:38.944Z,10.94
2019-05-03T07:43:05.672Z,10.81
2019-05-03T07:45:32.349Z,10.73
2019-05-03T07:47:59.032Z,10.63
2019-05-03T07:50:26.069Z,10.64
2019-05-03T07:52:52.759Z,10.59
2019-05-03T07:55:39.467Z,10.61
2019-05-03T07:58:06.545Z,10.69
2019-05-03T08:00:34.373Z,10.84
2019-05-03T08:03:01.404Z,10.96
2019-05-03T08:05:28.069Z,11.08
2019-05-03T08:07:55.386Z,11.28
2019-05-03T08:10:25.442Z,11.43
2019-05-03T08:12:51.796Z,11.58
2019-05-03T08:15:18.567Z,11.60
2019-05-03T08:17:45.217Z,11.66
2019-05-03T08:20:11.961Z,11.65
2019-05-03T08:22:38.567Z,11.53
2019-05-03T08:25:05.465Z,11.53
2019-05-03T08:27:32.245Z,11.65
2019-05-03T08:29:58.943Z,11.53
2019-05-03T08:32:45.054Z,11.38
2019-05-03T08:35:31.151Z,11.27
2019-05-03T08:37:59.175Z,11.25
2019-05-03T08:43:21.739Z,11.22
2019-05-03T08:45:48.348Z,11.28
2019-05-03T08:48:15.250Z,11.35
2019-05-03T08:50:49.506Z,11.48
2019-05-03T08:53:16.145Z,11.60
2019-05-03T08:55:44.821Z,11.53
2019-05-03T08:58:17.577Z,11.54
2019-05-03T09:00:45.512Z,11.64
2019-05-03T09:03:19.536Z,11.82
2019-05-03T09:05:46.519Z,12.04
2019-05-03T09:08:20.766Z,12.24
2019-05-03T09:11:06.843Z,12.41
2019-05-03T09:13:53.004Z,12.44
2019-05-03T09:16:19.818Z,12.41
2019-05-03T09:18:55.041Z,12.30
2019-05-03T09:21:34.630Z,12.25
2019-05-03T09:24:11.112Z,12.27
2019-05-03T09:26:37.740Z,12.35
2019-05-03T09:29:05.566Z,12.31
2019-05-03T09:31:44.695Z,12.39
2019-05-03T09:34:17.860Z,12.42
2019-05-03T09:36:44.915Z,12.46
2019-05-03T09:39:24.473Z,12.62
2019-05-03T09:41:57.850Z,12.67
2019-05-03T09:44:24.623Z,12.53
2019-05-03T09:46:51.330Z,12.42
2019-05-03T09:49:17.965Z,12.34
2019-05-03T09:51:44.573Z,12.36
2019-05-03T09:57:10.195Z,12.33
2019-05-03T09:59:36.835Z,12.27
2019-05-03T10:02:04.784Z,12.13
2019-05-03T10:04:38.306Z,12.06
2019-05-03T10:07:05.037Z,12.01
2019-05-03T10:09:31.766Z,12.14
2019-05-03T10:14:37.416Z,12.41
2019-05-03T10:22:45.870Z,12.44
2019-05-03T10:25:24.890Z,12.24
2019-05-03T10:27:51.608Z,12.23
2019-05-03T10:36:01.935Z,12.86
2019-05-03T10:38:28.897Z,13.10
2019-05-03T10:40:55.596Z,13.23
2019-05-03T10:43:22.209Z,13.37
2019-05-03T10:45:48.837Z,14.03
2019-05-03T10:48:15.640Z,14.68
2019-05-03T10:50:56.214Z,14.85
2019-05-03T10:53:48.131Z,14.95
2019-05-03T10:56:35.802Z,14.55
2019-05-03T10:59:09.653Z,14.39
2019-05-03T11:01:55.731Z,13.77
2019-05-03T11:04:22.351Z,13.30
2019-05-03T11:06:48.979Z,12.85
2019-05-03T11:09:15.605Z,12.55
2019-05-03T11:11:45.086Z,12.31
2019-05-03T11:14:20.675Z,12.09
2019-05-03T11:16:47.359Z,11.95
2019-05-03T11:19:14.571Z,11.81
2019-05-03T11:21:48.486Z,11.80
2019-05-03T11:24:15.113Z,11.69
2019-05-03T11:29:20.547Z,11.24
2019-05-03T11:37:45.243Z,10.30
2019-05-03T11:43:26.509Z,10.02
2019-05-03T11:45:55.282Z,9.91
2019-05-03T11:48:31.558Z,9.93
2019-05-03T11:50:58.272Z,9.94
2019-05-03T11:53:25.193Z,9.88
2019-05-03T11:55:59.702Z,9.83
2019-05-03T11:58:27.330Z,9.83
2019-05-03T12:01:25.630Z,9.92
2019-05-03T12:04:04.838Z,9.99
2019-05-03T12:06:37.982Z,10.24
2019-05-03T12:09:05.697Z,10.48
2019-05-03T12:14:34.642Z,10.97
2019-05-03T12:20:09.200Z,12.22
2019-05-03T12:22:43.143Z,12.72
2019-05-03T12:25:38.229Z,12.90
2019-05-03T12:28:05.905Z,13.03
2019-05-03T12:30:40.434Z,13.16
2019-05-03T12:33:07.040Z,13.13
2019-05-03T12:35:35.719Z,13.04
2019-05-03T12:38:08.486Z,13.02
2019-05-03T12:40:35.253Z,12.98
2019-05-03T12:43:01.959Z,12.99
2019-05-03T12:45:28.590Z,13.26
2019-05-03T12:47:55.901Z,14.06
2019-05-03T12:50:30.219Z,14.84
2019-05-03T12:52:56.968Z,15.19
2019-05-03T12:55:24.742Z,15.18
2019-05-03T12:57:58.242Z,14.86
2019-05-03T13:03:30.074Z,14.69
2019-05-03T13:05:56.714Z,14.42
2019-05-03T13:08:45.563Z,14.54
2019-05-03T13:11:18.541Z,14.57
2019-05-03T13:13:45.363Z,14.83
2019-05-03T13:18:58.404Z,14.65
2019-05-03T13:21:25.341Z,15.16
2019-05-03T13:24:05.323Z,15.06
2019-05-03T13:26:38.296Z,14.85
2019-05-03T13:29:05.895Z,14.60
2019-05-03T13:31:57.502Z,14.52
2019-05-03T13:34:18.300Z,14.32
2019-05-03T13:36:45.635Z,14.20
2019-05-03T13:39:26.341Z,14.00
2019-05-03T13:41:58.409Z,13.55
2019-05-03T13:44:25.137Z,13.16
2019-05-03T13:46:51.862Z,12.70
2019-05-03T13:49:18.496Z,12.15
2019-05-03T13:51:45.286Z,11.67
2019-05-03T13:54:20.073Z,11.45
2019-05-03T13:56:46.758Z,11.47
2019-05-03T13:59:19.796Z,11.47
2019-05-03T14:01:48.533Z,11.48
2019-05-03T14:04:15.201Z,11.43
2019-05-03T14:06:41.830Z,11.49
2019-05-03T14:09:08.475Z,11.52
2019-05-03T14:11:35.401Z,11.51
2019-05-03T14:14:15.217Z,11.45
2019-05-03T14:16:48.462Z,11.40
2019-05-03T14:24:36.895Z,11.47
2019-05-03T14:27:05.487Z,11.56
2019-05-03T14:29:38.708Z,11.63
2019-05-03T14:32:05.377Z,11.72
2019-05-03T14:34:32.126Z,11.77
2019-05-03T14:36:58.852Z,11.82
2019-05-03T14:39:25.540Z,11.85
2019-05-03T14:41:52.207Z,11.79
2019-05-03T14:44:18.862Z,11.68
2019-05-03T14:46:45.933Z,11.57
2019-05-03T14:49:20.470Z,11.54
2019-05-03T14:51:47.201Z,11.54
2019-05-03T14:54:14.516Z,11.61
2019-05-03T14:57:08.147Z,11.60
2019-05-03T14:59:54.685Z,11.43
2019-05-03T15:02:45.940Z,11.37
2019-05-03T15:05:15.713Z,11.58
2019-05-03T15:07:42.335Z,12.03
2019-05-03T15:10:09.077Z,12.29
2019-05-03T15:12:36.102Z,12.59
2019-05-03T15:15:10.369Z,12.80
2019-05-03T15:17:36.999Z,12.93
2019-05-03T15:20:04.057Z,13.11
2019-05-03T15:22:30.775Z,13.29
2019-05-03T15:24:57.487Z,13.42
2019-05-03T15:27:24.762Z,13.47
2019-05-03T15:29:58.681Z,13.56
2019-05-03T15:32:25.326Z,13.53
2019-05-03T15:34:52.073Z,13.45
2019-05-03T15:37:18.708Z,13.27
2019-05-03T15:39:45.368Z,13.15
2019-05-03T15:42:12.057Z,13.17
2019-05-03T15:44:58.194Z,12.98
2019-05-03T15:50:10.834Z,13.25
2019-05-03T15:52:37.467Z,13.23
2019-05-03T15:55:04.726Z,13.20
2019-05-03T15:57:33.312Z,13.28
2019-05-03T16:00:01.087Z,13.35
2019-05-03T16:02:32.783Z,13.25
2019-05-03T16:05:01.716Z,13.10
2019-05-03T16:07:28.413Z,12.80
2019-05-03T16:12:49.520Z,12.43
2019-05-03T16:18:12.334Z,12.27
2019-05-03T16:20:41.112Z,12.12
2019-05-03T16:23:07.837Z,11.93
2019-05-03T16:25:35.599Z,11.88
2019-05-03T16:28:28.724Z,11.79
2019-05-03T16:31:14.913Z,11.79
2019-05-03T16:33:41.575Z,11.80
2019-05-03T16:36:08.262Z,11.72
2019-05-03T16:38:35.441Z,11.59
2019-05-03T16:44:16.312Z,11.44
2019-05-03T16:46:49.738Z,11.45
2019-05-03T16:49:16.410Z,11.46
2019-05-03T16:51:44.280Z,11.46
2019-05-03T16:54:17.914Z,11.52
2019-05-03T16:56:44.652Z,11.51
2019-05-03T16:59:11.412Z,11.46
2019-05-03T17:01:38.039Z,11.48
2019-05-03T17:04:25.165Z,11.47
2019-05-03T17:07:11.385Z,11.41
2019-05-03T17:12:27.988Z,11.34
2019-05-03T17:14:57.124Z,11.31
2019-05-03T17:17:29.247Z,11.33
2019-05-03T17:19:55.982Z,11.34
2019-05-03T17:22:22.612Z,11.31
2019-05-03T17:24:51.649Z,11.31
2019-05-03T17:27:25.028Z,11.32
2019-05-03T17:32:38.569Z,11.22
2019-05-03T17:35:05.438Z,11.15
2019-05-03T17:37:32.134Z,11.08
2019-05-03T17:40:19.463Z,11.06
2019-05-03T17:43:14.668Z,11.01
2019-05-03T17:48:28.779Z,10.93
2019-05-03T17:50:55.498Z,10.90
2019-05-03T17:53:41.621Z,10.85
2019-05-03T17:56:27.807Z,10.80
2019-05-03T17:59:15.200Z,10.72
2019-05-03T18:02:08.803Z,10.90
2019-05-03T18:04:55.088Z,11.17
2019-05-03T18:07:41.309Z,11.27
2019-05-03T18:13:02.648Z,11.23
2019-05-03T18:15:29.378Z,11.36
2019-05-03T18:17:56.012Z,11.51
2019-05-03T18:20:22.742Z,11.72
2019-05-03T18:22:49.361Z,11.75
2019-05-03T18:25:16.907Z,11.70
2019-05-03T18:27:44.564Z,11.51
2019-05-03T18:30:18.397Z,11.31
2019-05-03T18:32:45.297Z,11.11
2019-05-03T18:35:20.205Z,10.98
2019-05-03T18:40:51.446Z,10.75
2019-05-03T18:46:38.060Z,10.62
2019-05-03T18:49:04.740Z,10.54
2019-05-03T18:51:31.459Z,10.48
2019-05-03T18:53:58.169Z,10.47
2019-05-03T18:56:25.284Z,10.38
2019-05-03T18:59:04.970Z,10.32
2019-05-03T19:01:38.179Z,10.24
2019-05-03T19:04:32.423Z,10.20
2019-05-03T19:07:04.387Z,10.20
2019-05-03T19:09:55.445Z,10.21
2019-05-03T19:12:44.628Z,10.14
2019-05-03T19:15:17.347Z,10.04
2019-05-03T19:18:04.353Z,10.07
2019-05-03T19:20:38.512Z,10.07
2019-05-03T19:23:05.163Z,10.00
2019-05-03T19:25:44.052Z,9.98
2019-05-03T19:28:08.135Z,9.91
2019-05-03T19:33:37.255Z,9.84
2019-05-03T19:36:13.856Z,9.83
2019-05-03T19:38:40.649Z,9.85
2019-05-03T19:41:07.417Z,9.84
2019-05-03T19:43:35.566Z,9.82
2019-05-03T19:46:08.972Z,9.79
2019-05-03T19:48:35.753Z,9.81
2019-05-03T19:51:02.490Z,9.80
2019-05-03T19:53:48.702Z,9.78
2019-05-03T19:56:15.819Z,9.80
2019-05-03T19:58:44.199Z,9.78
2019-05-03T20:01:41.038Z,9.78
2019-05-03T20:04:35.715Z,9.79
2019-05-03T20:07:21.854Z,9.76
2019-05-03T20:09:48.774Z,9.72
2019-05-03T20:12:15.550Z,9.70
2019-05-03T20:14:42.371Z,9.67
2019-05-03T20:17:09.154Z,9.65
2019-05-03T20:19:36.026Z,9.65
2019-05-03T20:22:05.002Z,9.65
2019-05-03T20:24:37.558Z,9.66
2019-05-03T20:27:04.731Z,9.61
2019-05-03T20:29:31.533Z,9.60
2019-05-03T20:31:58.171Z,9.59
2019-05-03T20:34:25.054Z,9.56
2019-05-03T20:36:51.723Z,9.55
2019-05-03T20:39:18.390Z,9.57
2019-05-03T20:41:45.315Z,9.61
2019-05-03T20:44:24.932Z,9.62
2019-05-03T20:47:11.161Z,9.62
2019-05-03T20:49:37.843Z,9.58
2019-05-03T20:52:04.480Z,9.56
2019-05-03T20:54:31.173Z,9.54
2019-05-03T20:56:57.946Z,9.52
2019-05-03T20:59:25.339Z,9.45
2019-05-03T21:01:52.033Z,9.46
2019-05-03T21:04:18.700Z,9.45
2019-05-03T21:06:45.676Z,9.44
2019-05-03T21:09:14.605Z,9.43
2019-05-03T21:11:41.039Z,9.43
2019-05-03T21:14:07.770Z,9.44
2019-05-03T21:16:56.778Z,9.42
2019-05-03T21:19:32.030Z,9.43
2019-05-03T21:22:10.890Z,9.45
2019-05-03T21:24:57.124Z,9.47
2019-05-03T21:27:24.663Z,9.49
2019-05-03T21:29:52.175Z,9.51
2019-05-03T21:32:18.823Z,9.53
2019-05-03T21:34:45.539Z,9.53
2019-05-03T21:37:12.182Z,9.52
2019-05-03T21:39:38.838Z,9.48
2019-05-03T21:42:05.589Z,9.48
2019-05-03T21:44:33.430Z,9.48
2019-05-03T21:47:08.973Z,9.48
2019-05-03T21:49:39.728Z,9.48
2019-05-03T21:52:06.475Z,9.44
2019-05-03T21:54:34.645Z,9.43
2019-05-03T21:57:01.532Z,9.40
2019-05-03T21:59:28.169Z,9.35
2019-05-03T22:01:54.815Z,9.35
2019-05-03T22:04:21.531Z,9.34
2019-05-03T22:06:48.167Z,9.32
2019-05-03T22:09:14.901Z,9.27
2019-05-03T22:11:41.612Z,9.23
2019-05-03T22:14:15.076Z,9.17
2019-05-03T22:16:50.413Z,9.13
2019-05-03T22:19:19.364Z,9.09
2019-05-03T22:22:10.952Z,9.06
2019-05-03T22:24:44.664Z,9.00
2019-05-03T22:27:15.938Z,8.96
2019-05-03T22:29:44.652Z,8.90
2019-05-03T22:32:11.181Z,8.86
2019-05-03T22:34:37.871Z,8.85
2019-05-03T22:37:04.588Z,8.80
2019-05-03T22:39:31.227Z,8.77
2019-05-03T22:41:57.985Z,8.77
2019-05-03T22:44:25.338Z,8.77
2019-05-03T22:46:52.224Z,8.76
2019-05-03T22:49:18.868Z,8.78
2019-05-03T22:51:45.566Z,8.81
2019-05-03T22:54:12.206Z,8.83
2019-05-03T22:56:38.932Z,8.83
2019-05-03T22:59:05.613Z,8.85
2019-05-03T23:01:32.304Z,8.84
2019-05-03T23:03:59.028Z,8.83
2019-05-03T23:06:25.723Z,8.85
2019-05-03T23:08:55.970Z,8.86
2019-05-03T23:11:20.876Z,8.85
2019-05-03T23:14:00.792Z,8.80
2019-05-03T23:16:27.445Z,8.78
2019-05-03T23:18:54.784Z,8.76
2019-05-03T23:21:24.419Z,8.76
2019-05-03T23:23:51.837Z,8.73
2019-05-03T23:26:18.566Z,8.70
2019-05-03T23:28:46.050Z,8.66
2019-05-03T23:31:14.568Z,8.63
2019-05-03T23:33:41.219Z,8.57
2019-05-03T23:36:07.875Z,8.50
2019-05-03T23:38:34.498Z,8.45
2019-05-03T23:41:01.224Z,8.39
2019-05-03T23:43:27.862Z,8.35
2019-05-03T23:45:54.636Z,8.29
2019-05-03T23:48:21.292Z,8.26
2019-05-03T23:50:47.958Z,8.21
2019-05-03T23:53:15.388Z,8.17
2019-05-03T23:55:46.443Z,8.16
2019-05-03T23:58:13.050Z,8.13
